Acosta, Argentina
Current Conditions -  °F | °C
As of 2:00 AM on Saturday 29 Nov 2014 (Local Time) from SASA Reporting Station
Clear Clear  
Wind Chill: 19°   Ceiling: Unl
Heat Index: 19°   Visibility: 6mi
Dew Point: 16°   Wind: 2mph
Humidity: 83%   Direction: 20°NNE
Pressure: 29.88"   Gusts: NA
Location:  25.59°S, 65.46°W
Report Text: SASA 290500Z 02002KT CAVOK 19/16 Q1012
Loading
Personal Weather Stations






























Interactive Weather Map New forecast layout! Learn more

10-Day Weather Forecast

Advertisements
Track Severe Weather on mobile